KGVT/GVT METAR and TAF weather

Enter ICAO airport designator
Station Type Date Time Source
KGVT METAR 2021/01/19 15:30 UTC NOAA

KGVT 191530Z AUTO 36007KT 10SM OVC060 11/04 A3031 RMK AO2


Station Type Date Time Source
KGVT Decoded METAR 2021/01/19 15:30 UTC NOAA

Greenville / Majors, TX, United States (KGVT) 33-04N 096-04W
Jan 19, 2021 - 10:30 AM EST / 2021.01.19 1530 UTC
Wind: from the N (360 degrees) at 8 MPH (7 KT):0
Visibility: 10 mile(s):0
Sky conditions: overcast
Temperature: 51 F (11 C)
Dew Point: 39 F (4 C)
Relative Humidity: 61%
Pressure (altimeter): 30.31 in. Hg (1026 hPa)
ob: KGVT 191530Z AUTO 36007KT 10SM OVC060 11/04 A3031 RMK AO2
cycle: 15

Station Type Date Time Source
KGVT TAF UTC NOAA

Error!

Example: see airport list